createdAt,value
2023-02-19T00:02:21.667Z,1.66
2023-02-19T00:04:49.834Z,1.77
2023-02-19T00:07:17.702Z,1.89
2023-02-19T00:09:45.540Z,1.87
2023-02-19T00:12:13.453Z,1.94
2023-02-19T00:14:41.381Z,1.80
2023-02-19T00:17:09.387Z,1.97
2023-02-19T00:19:37.455Z,1.99
2023-02-19T00:22:05.373Z,1.75
2023-02-19T00:24:33.361Z,2.09
2023-02-19T00:27:01.193Z,1.89
2023-02-19T00:29:29.350Z,2.16
2023-02-19T00:31:57.319Z,2.13
2023-02-19T00:34:25.429Z,2.24
2023-02-19T00:36:53.451Z,2.24
2023-02-19T00:39:21.637Z,2.37
2023-02-19T00:41:49.807Z,2.53
2023-02-19T00:44:18.122Z,2.84
2023-02-19T00:46:49.253Z,3.19
2023-02-19T00:49:21.441Z,4.55
2023-02-19T00:51:51.662Z,5.05
2023-02-19T00:54:20.285Z,6.10
2023-02-19T00:56:48.883Z,6.76
2023-02-19T00:59:16.933Z,6.91
2023-02-19T01:01:45.597Z,7.03
2023-02-19T01:04:13.920Z,6.97
2023-02-19T01:06:42.358Z,7.28
2023-02-19T01:09:10.380Z,7.35
2023-02-19T01:11:38.286Z,7.78
2023-02-19T01:14:06.257Z,7.90
2023-02-19T01:16:34.046Z,7.77
2023-02-19T01:19:02.534Z,8.00
2023-02-19T01:21:31.769Z,7.94
2023-02-19T01:23:59.864Z,8.13
2023-02-19T01:26:31.154Z,7.90
2023-02-19T01:29:01.362Z,7.95
2023-02-19T01:31:31.070Z,7.96
2023-02-19T01:34:01.302Z,8.19
2023-02-19T01:36:32.440Z,8.26
2023-02-19T01:39:04.023Z,8.32
2023-02-19T01:41:40.546Z,8.66
2023-02-19T01:44:28.482Z,8.78
2023-02-19T01:46:57.837Z,8.44
2023-02-19T01:49:32.152Z,8.14
2023-02-19T01:52:11.510Z,7.83
2023-02-19T01:54:42.718Z,7.64
2023-02-19T01:57:22.276Z,7.49
2023-02-19T01:59:55.473Z,7.37
2023-02-19T02:02:25.308Z,7.23
2023-02-19T02:04:53.705Z,6.99
2023-02-19T02:07:41.680Z,6.97
2023-02-19T02:10:21.837Z,6.90
2023-02-19T02:12:53.324Z,6.38
2023-02-19T02:15:22.540Z,6.77
2023-02-19T02:18:36.103Z,6.77
2023-02-19T02:21:21.985Z,6.59
2023-02-19T02:24:08.491Z,6.61
2023-02-19T02:26:56.567Z,6.49
2023-02-19T02:30:02.173Z,6.43
2023-02-19T02:32:38.602Z,6.38
2023-02-19T02:35:11.590Z,6.35
2023-02-19T02:37:43.708Z,6.33
2023-02-19T02:40:12.779Z,6.22
2023-02-19T02:42:40.832Z,6.19
2023-02-19T02:45:37.416Z,6.15
2023-02-19T02:48:46.733Z,5.85
2023-02-19T02:51:38.933Z,5.78
2023-02-19T02:58:10.888Z,5.50
2023-02-19T03:01:02.371Z,5.26
2023-02-19T03:03:32.724Z,5.15
2023-02-19T03:06:04.957Z,5.09
2023-02-19T03:09:18.876Z,4.90
2023-02-19T03:12:09.096Z,5.14
2023-02-19T03:15:05.207Z,4.99
2023-02-19T03:18:02.202Z,4.23
2023-02-19T03:20:34.675Z,4.54
2023-02-19T03:23:03.199Z,4.51
2023-02-19T03:25:57.775Z,4.51
2023-02-19T03:28:57.856Z,4.50
2023-02-19T03:31:30.180Z,4.46
2023-02-19T03:34:05.972Z,3.78
2023-02-19T03:36:46.089Z,4.28
2023-02-19T03:39:19.160Z,4.31
2023-02-19T03:42:06.221Z,4.37
2023-02-19T03:44:39.201Z,4.03
2023-02-19T03:47:28.140Z,4.09
2023-02-19T03:50:09.185Z,3.93
2023-02-19T03:52:52.356Z,3.99
2023-02-19T03:55:38.144Z,3.72
2023-02-19T03:58:14.935Z,3.74
2023-02-19T04:00:47.855Z,3.85
2023-02-19T04:03:24.805Z,3.80
2023-02-19T04:06:01.412Z,3.81
2023-02-19T04:08:31.429Z,3.70
2023-02-19T04:11:04.964Z,3.73
2023-02-19T04:13:45.932Z,3.73
2023-02-19T04:16:20.939Z,3.73
2023-02-19T04:18:54.701Z,3.78
2023-02-19T04:21:24.211Z,3.77
2023-02-19T04:23:52.438Z,3.49
2023-02-19T04:26:22.856Z,3.63
2023-02-19T04:28:53.066Z,3.60
2023-02-19T04:31:21.509Z,3.58
2023-02-19T04:33:49.510Z,3.41
2023-02-19T04:36:17.567Z,3.45
2023-02-19T04:38:45.599Z,3.44
2023-02-19T04:41:13.691Z,3.37
2023-02-19T04:43:41.595Z,3.34
2023-02-19T04:46:10.078Z,3.33
2023-02-19T04:48:38.222Z,3.15
2023-02-19T04:51:07.801Z,2.78
2023-02-19T04:53:36.853Z,2.90
2023-02-19T04:56:16.056Z,2.95
2023-02-19T04:58:44.908Z,2.82
2023-02-19T05:01:13.590Z,2.96
2023-02-19T05:03:41.788Z,2.95
2023-02-19T05:06:13.736Z,2.98
2023-02-19T05:08:42.005Z,3.01
2023-02-19T05:11:12.391Z,2.86
2023-02-19T05:13:40.924Z,2.89
2023-02-19T05:16:14.169Z,2.83
2023-02-19T05:18:43.961Z,2.68
2023-02-19T05:21:12.700Z,2.68
2023-02-19T05:23:41.653Z,2.73
2023-02-19T05:26:19.388Z,2.64
2023-02-19T05:28:49.619Z,2.57
2023-02-19T05:31:18.953Z,2.68
2023-02-19T05:33:51.421Z,2.69
2023-02-19T05:36:21.740Z,2.58
2023-02-19T05:38:57.299Z,2.51
2023-02-19T05:41:28.012Z,2.57
2023-02-19T05:43:57.171Z,2.77
2023-02-19T05:46:27.821Z,2.75
2023-02-19T05:48:56.302Z,2.64
2023-02-19T05:51:26.390Z,2.84
2023-02-19T05:53:56.043Z,2.77
2023-02-19T05:56:26.516Z,2.89
2023-02-19T05:58:55.853Z,3.02
2023-02-19T06:01:24.873Z,2.94
2023-02-19T06:03:55.456Z,3.01
2023-02-19T06:06:26.408Z,3.28
2023-02-19T06:08:54.721Z,3.37
2023-02-19T06:11:23.054Z,3.43
2023-02-19T06:13:51.238Z,3.63
2023-02-19T06:16:19.634Z,3.82
2023-02-19T06:18:48.462Z,3.96
2023-02-19T06:21:18.171Z,3.83
2023-02-19T06:23:46.678Z,4.08
2023-02-19T06:26:20.942Z,4.16
2023-02-19T06:28:51.266Z,4.09
2023-02-19T06:31:20.901Z,4.45
2023-02-19T06:33:50.986Z,4.66
2023-02-19T06:36:20.911Z,4.71
2023-02-19T06:38:49.222Z,4.90
2023-02-19T06:41:18.108Z,4.91
2023-02-19T06:43:46.922Z,5.07
2023-02-19T06:46:15.673Z,5.14
2023-02-19T06:48:45.487Z,5.23
2023-02-19T06:51:15.832Z,5.46
2023-02-19T06:53:43.804Z,5.71
2023-02-19T06:56:30.359Z,5.88
2023-02-19T06:59:01.622Z,5.93
2023-02-19T07:01:32.061Z,6.09
2023-02-19T07:04:00.157Z,6.48
2023-02-19T07:06:28.550Z,6.64
2023-02-19T07:08:58.512Z,6.96
2023-02-19T07:11:29.582Z,6.83
2023-02-19T07:14:02.770Z,7.18
2023-02-19T07:16:31.254Z,7.21
2023-02-19T07:19:00.954Z,7.38
2023-02-19T07:21:29.907Z,7.42
2023-02-19T07:23:58.158Z,7.61
2023-02-19T07:26:26.205Z,7.86
2023-02-19T07:28:54.280Z,8.05
2023-02-19T07:31:24.503Z,8.30
2023-02-19T07:33:53.162Z,8.56
2023-02-19T07:36:23.554Z,8.84
2023-02-19T07:38:59.577Z,8.92
2023-02-19T07:41:28.338Z,9.23
2023-02-19T07:43:59.056Z,9.43
2023-02-19T07:46:27.461Z,9.69
2023-02-19T07:48:55.389Z,9.86
2023-02-19T07:51:23.788Z,10.08
2023-02-19T07:53:52.243Z,10.30
2023-02-19T07:56:21.201Z,10.42
2023-02-19T07:58:49.581Z,10.96
2023-02-19T08:01:40.264Z,12.90
2023-02-19T08:04:08.972Z,14.88
2023-02-19T08:06:36.921Z,15.52
2023-02-19T08:09:06.235Z,16.62
2023-02-19T08:11:53.241Z,17.00
2023-02-19T08:14:24.707Z,17.31
2023-02-19T08:16:53.572Z,17.23
2023-02-19T08:19:21.481Z,16.82
2023-02-19T08:21:51.109Z,16.81
2023-02-19T08:24:19.129Z,17.28
2023-02-19T08:26:47.506Z,17.00
2023-02-19T08:29:15.884Z,17.25
2023-02-19T08:31:44.534Z,17.86
2023-02-19T08:34:12.983Z,18.45
2023-02-19T08:36:41.078Z,18.46
2023-02-19T08:39:09.567Z,17.28
2023-02-19T08:41:38.003Z,17.80
2023-02-19T08:44:06.361Z,19.08
2023-02-19T08:46:34.813Z,19.48
2023-02-19T08:49:02.945Z,19.72
2023-02-19T08:51:31.341Z,20.39
2023-02-19T08:53:59.407Z,20.67
2023-02-19T08:56:27.711Z,21.06
2023-02-19T08:58:56.137Z,21.19
2023-02-19T09:01:24.668Z,21.85
2023-02-19T09:03:54.336Z,21.97
2023-02-19T09:06:22.930Z,21.43
2023-02-19T09:08:51.335Z,22.80
2023-02-19T09:11:19.643Z,22.86
2023-02-19T09:13:48.231Z,24.48
2023-02-19T09:16:16.513Z,26.63
2023-02-19T09:18:46.160Z,26.33
2023-02-19T09:21:14.399Z,26.02
2023-02-19T09:23:45.691Z,24.94
2023-02-19T09:26:14.399Z,24.05
2023-02-19T09:28:42.515Z,22.12
2023-02-19T09:31:14.589Z,21.32
2023-02-19T09:33:47.897Z,22.03
2023-02-19T09:36:18.965Z,21.38
2023-02-19T09:38:47.343Z,21.07
2023-02-19T09:41:32.917Z,21.86
2023-02-19T09:44:04.832Z,21.85
2023-02-19T09:46:54.549Z,22.67
2023-02-19T09:49:50.298Z,23.02
2023-02-19T09:52:37.358Z,22.95
2023-02-19T09:55:19.470Z,23.18
2023-02-19T09:57:51.294Z,24.75
2023-02-19T10:00:29.498Z,25.73
2023-02-19T10:03:10.418Z,26.58
2023-02-19T10:05:41.517Z,28.14
2023-02-19T10:08:18.890Z,28.54
2023-02-19T10:10:47.834Z,29.35
2023-02-19T10:13:23.601Z,29.35
2023-02-19T10:15:57.627Z,28.68
2023-02-19T10:18:31.610Z,28.14
2023-02-19T10:21:01.146Z,27.91
2023-02-19T10:23:29.832Z,27.65
2023-02-19T10:26:01.521Z,28.61
2023-02-19T10:28:34.192Z,28.71
2023-02-19T10:31:05.677Z,28.94
2023-02-19T10:33:34.104Z,28.31
2023-02-19T10:36:24.038Z,27.01
2023-02-19T10:38:53.289Z,26.86
2023-02-19T10:41:24.735Z,27.39
2023-02-19T10:44:00.378Z,27.23
2023-02-19T10:46:33.515Z,26.00
2023-02-19T10:49:05.361Z,25.41
2023-02-19T10:51:39.417Z,25.02
2023-02-19T10:54:25.955Z,26.20
2023-02-19T10:56:54.973Z,27.35
2023-02-19T10:59:28.804Z,28.12
2023-02-19T11:02:17.351Z,28.43
2023-02-19T11:05:03.885Z,29.97
2023-02-19T11:07:34.203Z,29.48
2023-02-19T11:10:04.917Z,28.32
2023-02-19T11:12:35.201Z,27.85
2023-02-19T11:15:29.986Z,27.65
2023-02-19T11:18:20.962Z,26.12
2023-02-19T11:20:50.174Z,25.97
2023-02-19T11:23:22.706Z,25.04
2023-02-19T11:25:54.482Z,24.19
2023-02-19T11:28:31.887Z,23.31
2023-02-19T11:31:32.016Z,23.29
2023-02-19T11:34:29.416Z,23.70
2023-02-19T11:37:14.017Z,24.12
2023-02-19T11:39:47.823Z,24.08
2023-02-19T11:42:35.548Z,22.95
2023-02-19T11:45:49.167Z,23.04
2023-02-19T11:48:30.261Z,22.76
2023-02-19T11:51:16.590Z,22.19
2023-02-19T11:53:53.894Z,22.10
2023-02-19T11:56:34.317Z,21.99
2023-02-19T11:59:05.752Z,22.25
2023-02-19T12:01:52.393Z,22.49
2023-02-19T12:04:31.956Z,22.09
2023-02-19T12:07:19.149Z,21.56
2023-02-19T12:09:50.486Z,21.25
2023-02-19T12:12:32.435Z,20.94
2023-02-19T12:15:33.200Z,20.52
2023-02-19T12:18:07.196Z,20.13
2023-02-19T12:20:52.049Z,20.21
2023-02-19T12:23:44.902Z,20.05
2023-02-19T12:26:59.861Z,20.34
2023-02-19T12:29:49.927Z,20.40
2023-02-19T12:32:45.378Z,20.18
2023-02-19T12:35:47.953Z,19.92
2023-02-19T12:38:58.735Z,19.82
2023-02-19T12:41:35.901Z,19.81
2023-02-19T12:44:55.661Z,19.71
2023-02-19T12:47:32.549Z,19.70
2023-02-19T12:50:12.994Z,19.62
2023-02-19T12:52:46.799Z,19.63
2023-02-19T12:55:38.632Z,19.64
2023-02-19T12:58:14.400Z,19.72
2023-02-19T13:00:51.039Z,19.57
2023-02-19T13:03:29.188Z,19.54
2023-02-19T13:06:21.621Z,19.41
2023-02-19T13:09:07.213Z,19.44
2023-02-19T13:11:42.284Z,19.29
2023-02-19T13:14:13.764Z,18.98
2023-02-19T13:16:48.876Z,19.02
2023-02-19T13:19:17.505Z,18.83
2023-02-19T13:22:17.998Z,18.91
2023-02-19T13:24:47.521Z,18.89
2023-02-19T13:27:43.119Z,18.95
2023-02-19T13:30:50.053Z,18.88
2023-02-19T13:33:33.696Z,18.45
2023-02-19T13:36:43.233Z,18.40
2023-02-19T13:41:55.587Z,18.88
2023-02-19T13:44:28.233Z,18.80
2023-02-19T13:47:00.118Z,19.15
2023-02-19T13:49:28.610Z,19.31
2023-02-19T13:51:58.130Z,19.06
2023-02-19T13:54:36.371Z,19.39
2023-02-19T13:57:28.957Z,19.53
2023-02-19T13:59:58.813Z,19.66
2023-02-19T14:02:33.995Z,19.87
2023-02-19T14:05:09.706Z,19.92
2023-02-19T14:07:53.980Z,19.72
2023-02-19T14:10:53.481Z,19.82
2023-02-19T14:13:52.886Z,19.96
2023-02-19T14:16:55.226Z,19.50
2023-02-19T14:19:42.160Z,19.66
2023-02-19T14:22:58.416Z,19.36
2023-02-19T14:25:44.159Z,19.22
2023-02-19T14:28:33.967Z,19.03
2023-02-19T14:31:17.815Z,18.53
2023-02-19T14:34:15.411Z,18.36
2023-02-19T14:36:54.570Z,18.39
2023-02-19T14:39:36.716Z,18.25
2023-02-19T14:42:22.291Z,17.99
2023-02-19T14:44:57.737Z,17.53
2023-02-19T14:47:31.274Z,17.44
2023-02-19T14:50:15.577Z,17.00
2023-02-19T14:52:52.067Z,17.21
2023-02-19T14:55:37.518Z,17.20
2023-02-19T14:58:12.731Z,16.87
2023-02-19T15:00:43.030Z,16.91
2023-02-19T15:03:38.154Z,17.01
2023-02-19T15:06:12.819Z,16.98
2023-02-19T15:08:47.095Z,16.88
2023-02-19T15:11:25.314Z,16.75
2023-02-19T15:13:59.224Z,16.54
2023-02-19T15:16:29.839Z,16.68
2023-02-19T15:19:00.272Z,16.60
2023-02-19T15:21:33.810Z,16.36
2023-02-19T15:24:05.603Z,16.18
2023-02-19T15:26:37.362Z,16.23
2023-02-19T15:29:14.412Z,16.15
2023-02-19T15:32:16.410Z,16.07
2023-02-19T15:34:55.330Z,15.99
2023-02-19T15:37:33.152Z,15.88
2023-02-19T15:40:08.036Z,15.84
2023-02-19T15:42:38.511Z,15.67
2023-02-19T15:45:18.570Z,15.39
2023-02-19T15:48:09.626Z,15.41
2023-02-19T15:50:44.466Z,15.19
2023-02-19T15:53:24.311Z,15.27
2023-02-19T15:56:10.284Z,15.24
2023-02-19T15:59:13.875Z,14.66
2023-02-19T16:01:42.645Z,14.72
2023-02-19T16:04:16.611Z,14.43
2023-02-19T16:06:56.360Z,14.47
2023-02-19T16:09:31.478Z,14.16
2023-02-19T16:12:01.716Z,14.24
2023-02-19T16:14:32.275Z,14.27
2023-02-19T16:17:17.025Z,13.95
2023-02-19T16:20:02.826Z,14.00
2023-02-19T16:22:41.137Z,13.91
2023-02-19T16:25:28.848Z,13.98
2023-02-19T16:27:59.071Z,13.84
2023-02-19T16:30:31.588Z,13.84
2023-02-19T16:33:32.482Z,13.91
2023-02-19T16:36:21.373Z,13.76
2023-02-19T16:39:04.477Z,14.13
2023-02-19T16:41:53.190Z,14.15
2023-02-19T16:44:21.690Z,14.23
2023-02-19T16:47:03.577Z,14.23
2023-02-19T16:49:32.358Z,14.24
2023-02-19T16:52:04.250Z,14.27
2023-02-19T16:54:32.909Z,14.35
2023-02-19T16:57:01.147Z,14.32
2023-02-19T16:59:29.435Z,14.43
2023-02-19T17:01:57.966Z,14.40
2023-02-19T17:04:26.380Z,14.43
2023-02-19T17:06:54.952Z,14.33
2023-02-19T17:09:23.245Z,14.27
2023-02-19T17:11:51.469Z,14.08
2023-02-19T17:14:20.007Z,14.15
2023-02-19T17:16:48.677Z,14.13
2023-02-19T17:19:19.600Z,13.84
2023-02-19T17:21:48.218Z,13.86
2023-02-19T17:24:16.750Z,13.74
2023-02-19T17:26:45.242Z,13.73
2023-02-19T17:29:15.946Z,13.40
2023-02-19T17:31:45.226Z,13.43
2023-02-19T17:34:13.687Z,13.31
2023-02-19T17:36:43.671Z,13.13
2023-02-19T17:39:18.044Z,13.11
2023-02-19T17:41:46.487Z,12.88
2023-02-19T17:44:14.809Z,12.92
2023-02-19T17:46:43.840Z,12.62
2023-02-19T17:49:13.700Z,12.62
2023-02-19T17:51:42.397Z,12.66
2023-02-19T17:54:11.001Z,12.72
2023-02-19T17:56:43.624Z,12.68
2023-02-19T17:59:13.069Z,12.72
2023-02-19T18:01:41.751Z,12.41
2023-02-19T18:04:10.223Z,12.40
2023-02-19T18:06:38.822Z,12.21
2023-02-19T18:09:07.074Z,12.16
2023-02-19T18:11:37.350Z,12.19
2023-02-19T18:14:05.821Z,12.26
2023-02-19T18:16:34.236Z,12.21
2023-02-19T18:19:03.152Z,12.19
2023-02-19T18:21:31.234Z,12.20
2023-02-19T18:23:59.644Z,12.19
2023-02-19T18:26:28.272Z,12.20
2023-02-19T18:28:57.091Z,11.95
2023-02-19T18:31:25.472Z,12.09
2023-02-19T18:33:54.096Z,11.98
2023-02-19T18:36:23.204Z,11.83
2023-02-19T18:38:51.653Z,11.82
2023-02-19T18:41:21.397Z,11.84
2023-02-19T18:43:49.892Z,11.49
2023-02-19T18:46:21.664Z,11.54
2023-02-19T18:48:50.166Z,11.62
2023-02-19T18:51:18.748Z,11.45
2023-02-19T18:53:47.196Z,11.38
2023-02-19T18:56:16.161Z,11.32
2023-02-19T18:58:44.942Z,10.94
2023-02-19T19:01:14.457Z,10.84
2023-02-19T19:03:43.424Z,10.96
2023-02-19T19:06:11.797Z,10.82
2023-02-19T19:08:40.254Z,10.95
2023-02-19T19:11:09.486Z,10.74
2023-02-19T19:13:37.898Z,10.86
2023-02-19T19:16:07.031Z,10.83
2023-02-19T19:18:38.438Z,10.82
2023-02-19T19:21:07.458Z,10.66
2023-02-19T19:23:36.188Z,10.68
2023-02-19T19:26:08.170Z,10.60
2023-02-19T19:28:39.739Z,10.35
2023-02-19T19:31:08.776Z,10.41
2023-02-19T19:33:37.366Z,10.29
2023-02-19T19:36:06.725Z,10.34
2023-02-19T19:38:35.562Z,10.16
2023-02-19T19:41:04.338Z,10.05
2023-02-19T19:43:34.189Z,9.90
2023-02-19T19:46:04.483Z,9.84
2023-02-19T19:48:33.588Z,9.86
2023-02-19T19:51:02.070Z,9.91
2023-02-19T19:53:30.736Z,9.72
2023-02-19T19:56:00.996Z,9.87
2023-02-19T19:58:29.795Z,9.78
2023-02-19T20:01:02.076Z,9.70
2023-02-19T20:03:32.786Z,9.71
2023-02-19T20:06:02.398Z,9.75
2023-02-19T20:08:30.691Z,9.74
2023-02-19T20:10:59.099Z,9.75
2023-02-19T20:13:31.005Z,9.64
2023-02-19T20:15:59.670Z,9.58
2023-02-19T20:18:28.582Z,9.55
2023-02-19T20:20:57.250Z,9.59
2023-02-19T20:23:27.363Z,9.56
2023-02-19T20:25:58.620Z,9.77
2023-02-19T20:28:27.169Z,9.96
2023-02-19T20:30:55.591Z,10.08
2023-02-19T20:33:24.564Z,10.25
2023-02-19T20:35:52.980Z,10.40
2023-02-19T20:38:21.149Z,10.46
2023-02-19T20:40:49.502Z,10.50
2023-02-19T20:43:17.561Z,10.55
2023-02-19T20:45:46.821Z,10.66
2023-02-19T20:48:16.967Z,10.75
2023-02-19T20:50:46.189Z,10.75
2023-02-19T20:53:14.559Z,10.76
2023-02-19T20:55:42.602Z,10.82
2023-02-19T20:58:10.566Z,10.77
2023-02-19T21:00:38.995Z,10.78
2023-02-19T21:03:09.454Z,10.89
2023-02-19T21:05:39.772Z,10.97
2023-02-19T21:08:07.960Z,11.05
2023-02-19T21:10:36.213Z,11.02
2023-02-19T21:13:04.237Z,11.00
2023-02-19T21:15:32.185Z,11.03
2023-02-19T21:18:00.399Z,10.98
2023-02-19T21:20:28.273Z,11.00
2023-02-19T21:22:56.352Z,10.96
2023-02-19T21:25:24.326Z,10.99
2023-02-19T21:27:52.203Z,11.07
2023-02-19T21:30:20.302Z,11.06
2023-02-19T21:32:48.196Z,10.99
2023-02-19T21:35:16.648Z,10.90
2023-02-19T21:37:44.625Z,11.00
2023-02-19T21:40:13.612Z,10.97
2023-02-19T21:42:41.303Z,10.96
2023-02-19T21:45:09.445Z,10.94
2023-02-19T21:47:37.413Z,10.89
2023-02-19T21:50:06.701Z,10.89
2023-02-19T21:52:34.672Z,10.81
2023-02-19T21:55:02.752Z,10.85
2023-02-19T21:57:32.593Z,10.86
2023-02-19T22:00:00.595Z,10.86
2023-02-19T22:02:28.856Z,10.87
2023-02-19T22:04:57.942Z,10.85
2023-02-19T22:07:26.341Z,10.81
2023-02-19T22:09:54.676Z,10.79
2023-02-19T22:12:22.545Z,10.69
2023-02-19T22:14:50.635Z,10.69
2023-02-19T22:17:19.778Z,10.70
2023-02-19T22:19:47.694Z,10.64
2023-02-19T22:22:15.699Z,10.59
2023-02-19T22:24:43.594Z,10.58
2023-02-19T22:27:11.553Z,10.53
2023-02-19T22:29:39.524Z,10.57
2023-02-19T22:32:07.792Z,10.51
2023-02-19T22:34:42.018Z,10.49
2023-02-19T22:37:10.779Z,10.44
2023-02-19T22:39:38.680Z,10.42
2023-02-19T22:42:06.580Z,10.39
2023-02-19T22:44:35.635Z,10.34
2023-02-19T22:47:03.323Z,10.34
2023-02-19T22:49:31.374Z,10.28
2023-02-19T22:52:04.573Z,10.27
2023-02-19T22:54:32.653Z,10.26
2023-02-19T22:57:00.672Z,10.28
2023-02-19T22:59:28.914Z,10.18
2023-02-19T23:01:57.251Z,10.18
2023-02-19T23:04:26.118Z,10.13
2023-02-19T23:06:53.946Z,10.10
2023-02-19T23:09:28.715Z,9.98
2023-02-19T23:12:08.760Z,9.94
2023-02-19T23:14:36.980Z,9.85
2023-02-19T23:17:05.350Z,9.89
2023-02-19T23:19:33.307Z,9.84
2023-02-19T23:22:04.100Z,9.76
2023-02-19T23:24:34.111Z,9.74
2023-02-19T23:27:02.572Z,9.77
2023-02-19T23:29:31.168Z,9.73
2023-02-19T23:32:00.509Z,9.72
2023-02-19T23:34:28.647Z,9.73
2023-02-19T23:36:59.651Z,9.72
2023-02-19T23:39:27.573Z,9.70
2023-02-19T23:41:57.156Z,9.63
2023-02-19T23:44:25.929Z,9.67
2023-02-19T23:46:53.671Z,9.61
2023-02-19T23:49:21.254Z,9.36
2023-02-19T23:51:49.471Z,9.56
2023-02-19T23:54:17.447Z,9.51
2023-02-19T23:56:45.457Z,9.56
2023-02-19T23:59:13.710Z,9.56
